createdAt,value
2022-09-27T00:01:44.182Z,10.99
2022-09-27T00:04:12.289Z,11.01
2022-09-27T00:06:41.084Z,11.00
2022-09-27T00:09:08.407Z,10.84
2022-09-27T00:11:38.980Z,11.01
2022-09-27T00:14:07.791Z,11.01
2022-09-27T00:16:38.346Z,11.01
2022-09-27T00:19:08.775Z,10.81
2022-09-27T00:21:36.355Z,10.88
2022-09-27T00:24:03.326Z,10.98
2022-09-27T00:26:30.482Z,10.97
2022-09-27T00:28:57.986Z,10.96
2022-09-27T00:31:30.779Z,10.93
2022-09-27T00:34:00.955Z,10.91
2022-09-27T00:36:29.309Z,10.92
2022-09-27T00:38:56.760Z,10.91
2022-09-27T00:41:35.541Z,10.89
2022-09-27T00:44:06.343Z,10.86
2022-09-27T00:46:38.525Z,10.85
2022-09-27T00:49:19.058Z,10.81
2022-09-27T00:51:50.876Z,10.79
2022-09-27T00:54:19.668Z,10.76
2022-09-27T00:56:47.548Z,10.74
2022-09-27T00:59:20.854Z,10.72
2022-09-27T01:01:49.953Z,10.53
2022-09-27T01:04:24.195Z,10.66
2022-09-27T01:06:51.806Z,10.51
2022-09-27T01:09:19.049Z,10.60
2022-09-27T01:12:05.611Z,10.56
2022-09-27T01:14:55.260Z,10.54
2022-09-27T01:17:50.270Z,10.52
2022-09-27T01:20:46.469Z,10.49
2022-09-27T01:23:28.904Z,10.46
2022-09-27T01:26:16.889Z,10.46
2022-09-27T01:29:05.756Z,10.43
2022-09-27T01:31:41.599Z,10.43
2022-09-27T01:34:21.019Z,10.42
2022-09-27T01:37:01.298Z,10.40
2022-09-27T01:39:50.260Z,10.37
2022-09-27T01:42:41.356Z,10.37
2022-09-27T01:45:15.912Z,10.35
2022-09-27T01:48:07.608Z,10.33
2022-09-27T01:51:25.449Z,10.30
2022-09-27T01:53:56.543Z,10.29
2022-09-27T01:56:50.677Z,10.25
2022-09-27T01:59:29.798Z,10.23
2022-09-27T02:02:12.369Z,10.21
2022-09-27T02:05:01.244Z,10.20
2022-09-27T02:07:56.661Z,10.17
2022-09-27T02:10:29.091Z,10.15
2022-09-27T02:13:09.492Z,10.13
2022-09-27T02:16:13.254Z,10.11
2022-09-27T02:18:44.747Z,10.09
2022-09-27T02:21:15.133Z,10.08
2022-09-27T02:23:47.855Z,10.06
2022-09-27T02:26:27.239Z,10.04
2022-09-27T02:29:30.692Z,10.02
2022-09-27T02:31:57.755Z,10.01
2022-09-27T02:34:29.102Z,9.98
2022-09-27T02:36:56.483Z,9.99
2022-09-27T02:39:24.051Z,9.99
2022-09-27T02:42:00.277Z,10.00
2022-09-27T02:44:28.614Z,10.00
2022-09-27T02:47:13.396Z,10.01
2022-09-27T02:49:56.047Z,10.01
2022-09-27T02:53:21.113Z,10.02
2022-09-27T02:56:15.823Z,10.03
2022-09-27T02:59:53.817Z,9.84
2022-09-27T03:02:48.461Z,10.04
2022-09-27T03:05:28.951Z,10.02
2022-09-27T03:07:56.263Z,10.05
2022-09-27T03:10:26.667Z,10.04
2022-09-27T03:12:54.834Z,10.04
2022-09-27T03:15:21.782Z,10.05
2022-09-27T03:17:54.740Z,10.06
2022-09-27T03:20:24.723Z,10.07
2022-09-27T03:23:11.388Z,10.08
2022-09-27T03:25:38.796Z,10.08
2022-09-27T03:28:06.605Z,10.08
2022-09-27T03:30:34.158Z,10.09
2022-09-27T03:33:01.188Z,10.10
2022-09-27T03:35:46.625Z,10.07
2022-09-27T03:38:14.481Z,10.09
2022-09-27T03:40:41.505Z,10.13
2022-09-27T03:43:09.660Z,10.14
2022-09-27T03:45:37.594Z,10.15
2022-09-27T03:48:08.686Z,10.15
2022-09-27T03:50:35.980Z,10.16
2022-09-27T03:53:03.139Z,10.16
2022-09-27T03:55:30.867Z,10.18
2022-09-27T03:57:57.732Z,10.14
2022-09-27T04:00:26.290Z,10.17
2022-09-27T04:02:53.522Z,10.16
2022-09-27T04:05:28.947Z,10.21
2022-09-27T04:08:02.816Z,10.23
2022-09-27T04:10:32.278Z,10.25
2022-09-27T04:12:59.376Z,10.25
2022-09-27T04:15:30.395Z,10.26
2022-09-27T04:18:17.033Z,10.27
2022-09-27T04:21:22.889Z,10.28
2022-09-27T04:23:52.747Z,10.21
2022-09-27T04:26:23.194Z,10.30
2022-09-27T04:29:13.391Z,10.30
2022-09-27T04:31:47.791Z,10.28
2022-09-27T04:34:14.792Z,10.30
2022-09-27T04:36:41.760Z,10.31
2022-09-27T04:39:12.899Z,10.32
2022-09-27T04:41:42.706Z,10.31
2022-09-27T04:44:09.819Z,10.31
2022-09-27T04:46:36.807Z,10.32
2022-09-27T04:49:04.615Z,10.34
2022-09-27T04:51:34.526Z,10.35
2022-09-27T04:54:01.993Z,10.36
2022-09-27T04:56:32.592Z,10.31
2022-09-27T04:59:01.380Z,10.38
2022-09-27T05:01:30.445Z,10.38
2022-09-27T05:03:57.823Z,10.38
2022-09-27T05:06:26.089Z,10.38
2022-09-27T05:08:55.635Z,10.39
2022-09-27T05:11:28.583Z,10.40
2022-09-27T05:14:14.303Z,10.41
2022-09-27T05:16:51.092Z,10.41
2022-09-27T05:19:38.544Z,10.41
2022-09-27T05:22:09.168Z,10.36
2022-09-27T05:24:36.143Z,10.41
2022-09-27T05:27:04.520Z,10.42
2022-09-27T05:29:31.755Z,10.30
2022-09-27T05:32:24.697Z,10.42
2022-09-27T05:35:14.922Z,10.43
2022-09-27T05:37:41.868Z,10.44
2022-09-27T05:40:22.906Z,10.42
2022-09-27T05:42:56.552Z,10.49
2022-09-27T05:45:25.175Z,10.49
2022-09-27T05:47:58.862Z,10.52
2022-09-27T05:50:27.299Z,10.54
2022-09-27T05:52:54.874Z,10.54
2022-09-27T05:55:23.020Z,10.56
2022-09-27T05:58:01.877Z,10.57
2022-09-27T06:00:39.501Z,10.60
2022-09-27T06:03:26.460Z,10.63
2022-09-27T06:06:15.666Z,10.64
2022-09-27T06:08:53.798Z,10.65
2022-09-27T06:11:22.301Z,10.66
2022-09-27T06:13:50.121Z,10.69
2022-09-27T06:16:17.308Z,10.71
2022-09-27T06:18:46.241Z,10.69
2022-09-27T06:21:13.644Z,10.75
2022-09-27T06:23:45.034Z,10.76
2022-09-27T06:26:24.897Z,10.78
2022-09-27T06:28:58.996Z,10.67
2022-09-27T06:31:26.375Z,10.83
2022-09-27T06:34:03.227Z,10.85
2022-09-27T06:36:31.248Z,10.88
2022-09-27T06:38:58.156Z,10.91
2022-09-27T06:41:36.078Z,10.94
2022-09-27T06:44:05.892Z,10.95
2022-09-27T06:47:07.848Z,10.97
2022-09-27T06:50:11.372Z,10.99
2022-09-27T06:52:58.749Z,11.02
2022-09-27T06:55:46.038Z,11.06
2022-09-27T06:58:31.628Z,11.09
2022-09-27T07:01:37.021Z,11.05
2022-09-27T07:04:42.948Z,11.19
2022-09-27T07:08:05.127Z,11.24
2022-09-27T07:10:55.404Z,11.27
2022-09-27T07:13:43.355Z,11.33
2022-09-27T07:16:34.592Z,11.25
2022-09-27T07:19:23.873Z,11.40
2022-09-27T07:22:11.924Z,11.38
2022-09-27T07:25:00.309Z,11.46
2022-09-27T07:27:47.331Z,11.49
2022-09-27T07:30:34.773Z,11.48
2022-09-27T07:33:25.092Z,11.57
2022-09-27T07:36:12.162Z,11.60
2022-09-27T07:39:02.097Z,11.61
2022-09-27T07:41:52.176Z,11.56
2022-09-27T07:44:39.324Z,11.72
2022-09-27T07:47:48.983Z,11.76
2022-09-27T07:50:42.693Z,11.81
2022-09-27T07:53:55.870Z,11.84
2022-09-27T07:56:59.148Z,11.90
2022-09-27T07:59:46.140Z,11.93
2022-09-27T08:02:37.999Z,11.97
2022-09-27T08:05:25.697Z,12.02
2022-09-27T08:08:19.370Z,12.00
2022-09-27T08:11:08.580Z,12.13
2022-09-27T08:13:56.836Z,12.20
2022-09-27T08:16:48.830Z,12.26
2022-09-27T08:19:49.432Z,12.31
2022-09-27T08:23:01.515Z,12.37
2022-09-27T08:26:02.216Z,12.42
2022-09-27T08:29:00.905Z,12.49
2022-09-27T08:31:51.442Z,12.53
2022-09-27T08:34:39.099Z,12.61
2022-09-27T08:37:26.488Z,12.66
2022-09-27T08:40:13.574Z,12.71
2022-09-27T08:43:16.936Z,12.66
2022-09-27T08:46:15.989Z,12.86
2022-09-27T08:48:47.700Z,12.90
2022-09-27T08:51:16.426Z,12.94
2022-09-27T08:53:56.659Z,12.99
2022-09-27T08:56:24.950Z,13.02
2022-09-27T08:59:02.172Z,13.05
2022-09-27T09:01:34.912Z,13.12
2022-09-27T09:04:15.825Z,13.00
2022-09-27T09:07:20.331Z,13.21
2022-09-27T09:10:42.779Z,13.27
2022-09-27T09:13:36.825Z,13.33
2022-09-27T09:16:46.094Z,13.41
2022-09-27T09:19:51.316Z,13.49
2022-09-27T09:23:09.028Z,13.56
2022-09-27T09:26:04.491Z,13.62
2022-09-27T09:29:03.730Z,13.65
2022-09-27T09:32:14.670Z,13.67
2022-09-27T09:35:17.013Z,13.69
2022-09-27T09:38:11.009Z,13.67
2022-09-27T09:41:07.747Z,13.66
2022-09-27T09:44:16.077Z,13.65
2022-09-27T09:47:10.668Z,13.63
2022-09-27T09:50:06.055Z,13.62
2022-09-27T09:53:05.024Z,13.60
2022-09-27T09:55:56.373Z,13.60
2022-09-27T09:58:51.811Z,13.58
2022-09-27T10:01:50.387Z,13.59
2022-09-27T10:04:43.505Z,13.56
2022-09-27T10:07:30.596Z,13.56
2022-09-27T10:10:21.856Z,13.55
2022-09-27T10:13:15.980Z,13.51
2022-09-27T10:16:34.078Z,13.54
2022-09-27T10:19:23.480Z,13.53
2022-09-27T10:22:11.521Z,13.40
2022-09-27T10:25:17.648Z,13.50
2022-09-27T10:28:15.459Z,13.49
2022-09-27T10:31:02.488Z,13.50
2022-09-27T10:33:55.146Z,13.49
2022-09-27T10:36:46.860Z,13.48
2022-09-27T10:39:42.436Z,13.39
2022-09-27T10:42:58.352Z,13.48
2022-09-27T10:45:56.971Z,13.48
2022-09-27T10:48:44.060Z,13.48
2022-09-27T10:51:51.543Z,13.47
2022-09-27T10:54:54.784Z,13.45
2022-09-27T10:57:45.319Z,13.43
2022-09-27T11:00:53.690Z,13.39
2022-09-27T11:03:41.148Z,13.38
2022-09-27T11:06:49.827Z,13.32
2022-09-27T11:09:43.703Z,13.34
2022-09-27T11:12:34.947Z,13.32
2022-09-27T11:15:25.616Z,13.29
2022-09-27T11:18:23.699Z,13.27
2022-09-27T11:21:29.383Z,13.24
2022-09-27T11:24:16.456Z,13.23
2022-09-27T11:27:09.913Z,13.22
2022-09-27T11:30:24.787Z,13.20
2022-09-27T11:33:48.695Z,13.19
2022-09-27T11:37:16.514Z,13.18
2022-09-27T11:40:24.065Z,13.19
2022-09-27T11:43:29.120Z,13.17
2022-09-27T11:46:41.091Z,13.14
2022-09-27T11:49:44.415Z,13.11
2022-09-27T11:52:50.216Z,13.07
2022-09-27T11:55:49.694Z,13.04
2022-09-27T11:58:43.313Z,13.02
2022-09-27T12:01:34.397Z,13.01
2022-09-27T12:04:57.931Z,13.01
2022-09-27T12:07:55.752Z,13.00
2022-09-27T12:10:43.021Z,12.97
2022-09-27T12:13:34.582Z,12.92
2022-09-27T12:16:22.802Z,12.97
2022-09-27T12:19:12.379Z,12.97
2022-09-27T12:22:11.295Z,12.97
2022-09-27T12:25:03.956Z,12.98
2022-09-27T12:28:09.675Z,12.97
2022-09-27T12:31:27.639Z,12.96
2022-09-27T12:34:19.522Z,13.00
2022-09-27T12:37:24.443Z,13.00
2022-09-27T12:40:20.731Z,13.01
2022-09-27T12:43:14.920Z,12.89
2022-09-27T12:47:00.982Z,13.08
2022-09-27T12:50:29.942Z,13.14
2022-09-27T12:53:25.314Z,13.18
2022-09-27T12:56:27.111Z,13.20
2022-09-27T12:59:42.040Z,13.22
2022-09-27T13:03:17.244Z,13.26
2022-09-27T13:06:47.754Z,13.28
2022-09-27T13:10:17.707Z,13.28
2022-09-27T13:13:11.463Z,13.36
2022-09-27T13:15:59.691Z,13.46
2022-09-27T13:18:53.092Z,13.57
2022-09-27T13:22:09.719Z,13.68
2022-09-27T13:25:10.021Z,13.74
2022-09-27T13:28:13.825Z,13.88
2022-09-27T13:31:01.018Z,13.93
2022-09-27T13:33:48.951Z,13.97
2022-09-27T13:36:51.977Z,13.98
2022-09-27T13:39:40.377Z,13.99
2022-09-27T13:43:02.063Z,14.00
2022-09-27T13:46:18.155Z,13.98
2022-09-27T13:49:25.211Z,13.96
2022-09-27T13:53:02.555Z,13.93
2022-09-27T13:56:08.628Z,13.94
2022-09-27T13:59:23.213Z,13.91
2022-09-27T14:02:54.635Z,13.90
2022-09-27T14:05:52.707Z,13.88
2022-09-27T14:08:47.456Z,13.86
2022-09-27T14:12:09.510Z,13.84
2022-09-27T14:14:57.288Z,13.80
2022-09-27T14:17:45.371Z,13.78
2022-09-27T14:21:12.712Z,13.74
2022-09-27T14:24:53.571Z,13.69
2022-09-27T14:27:54.631Z,13.66
2022-09-27T14:30:50.807Z,13.62
2022-09-27T14:34:00.517Z,13.57
2022-09-27T14:36:51.823Z,13.49
2022-09-27T14:39:49.996Z,13.47
2022-09-27T14:42:49.863Z,13.22
2022-09-27T14:45:57.564Z,13.37
2022-09-27T14:48:53.175Z,13.32
2022-09-27T14:51:47.122Z,13.27
2022-09-27T14:54:26.774Z,13.22
2022-09-27T14:57:15.170Z,13.17
2022-09-27T15:00:02.665Z,13.09
2022-09-27T15:02:49.720Z,13.09
2022-09-27T15:05:39.145Z,13.06
2022-09-27T15:08:26.740Z,13.02
2022-09-27T15:11:14.165Z,12.99
2022-09-27T15:14:02.200Z,12.97
2022-09-27T15:16:51.193Z,12.94
2022-09-27T15:19:50.707Z,12.92
2022-09-27T15:23:06.651Z,12.88
2022-09-27T15:25:59.323Z,12.85
2022-09-27T15:28:46.389Z,12.84
2022-09-27T15:31:34.695Z,12.79
2022-09-27T15:34:23.577Z,12.74
2022-09-27T15:37:17.072Z,12.44
2022-09-27T15:40:03.944Z,12.66
2022-09-27T15:43:33.372Z,12.61
2022-09-27T15:46:22.598Z,12.57
2022-09-27T15:49:55.867Z,12.50
2022-09-27T15:53:03.724Z,12.46
2022-09-27T15:55:53.832Z,12.41
2022-09-27T15:58:41.673Z,12.38
2022-09-27T16:01:37.832Z,12.33
2022-09-27T16:04:29.048Z,12.30
2022-09-27T16:07:16.120Z,12.27
2022-09-27T16:10:02.984Z,12.21
2022-09-27T16:12:49.965Z,12.18
2022-09-27T16:15:37.060Z,12.04
2022-09-27T16:18:27.087Z,12.09
2022-09-27T16:21:18.221Z,12.06
2022-09-27T16:24:06.381Z,12.01
2022-09-27T16:26:53.524Z,11.95
2022-09-27T16:29:44.190Z,11.95
2022-09-27T16:32:31.376Z,11.91
2022-09-27T16:35:18.534Z,11.86
2022-09-27T16:38:05.869Z,11.84
2022-09-27T16:40:52.944Z,11.78
2022-09-27T16:43:39.827Z,11.66
2022-09-27T16:46:28.367Z,11.73
2022-09-27T16:49:16.249Z,11.68
2022-09-27T16:52:21.499Z,11.64
2022-09-27T16:55:08.723Z,11.60
2022-09-27T16:57:55.665Z,11.57
2022-09-27T17:00:42.653Z,11.42
2022-09-27T17:03:29.630Z,11.50
2022-09-27T17:06:21.524Z,11.34
2022-09-27T17:09:08.334Z,11.44
2022-09-27T17:11:55.550Z,11.42
2022-09-27T17:14:42.643Z,11.41
2022-09-27T17:17:29.677Z,11.39
2022-09-27T17:20:16.640Z,11.36
2022-09-27T17:23:03.468Z,11.34
2022-09-27T17:25:30.429Z,11.33
2022-09-27T17:27:57.332Z,11.31
2022-09-27T17:30:24.544Z,11.29
2022-09-27T17:32:51.571Z,11.27
2022-09-27T17:35:18.663Z,11.26
2022-09-27T17:37:46.215Z,11.24
2022-09-27T17:40:14.460Z,11.21
2022-09-27T17:42:42.119Z,11.14
2022-09-27T17:45:09.525Z,11.15
2022-09-27T17:47:54.961Z,11.15
2022-09-27T17:50:24.804Z,11.14
2022-09-27T17:52:53.432Z,11.11
2022-09-27T17:55:24.279Z,11.11
2022-09-27T17:57:51.758Z,11.07
2022-09-27T18:00:19.290Z,11.09
2022-09-27T18:03:06.571Z,11.07
2022-09-27T18:05:53.662Z,11.07
2022-09-27T18:08:40.713Z,11.04
2022-09-27T18:11:30.587Z,11.02
2022-09-27T18:14:18.997Z,11.00
2022-09-27T18:17:05.970Z,10.97
2022-09-27T18:19:53.027Z,10.96
2022-09-27T18:22:40.040Z,10.95
2022-09-27T18:25:27.347Z,10.93
2022-09-27T18:28:14.259Z,10.93
2022-09-27T18:30:41.229Z,10.90
2022-09-27T18:33:08.144Z,10.87
2022-09-27T18:35:55.331Z,10.89
2022-09-27T18:38:42.303Z,10.86
2022-09-27T18:41:29.843Z,10.85
2022-09-27T18:44:19.750Z,10.83
2022-09-27T18:47:07.533Z,10.81
2022-09-27T18:49:54.408Z,10.79
2022-09-27T18:52:41.292Z,10.78
2022-09-27T18:55:28.389Z,10.76
2022-09-27T18:58:15.400Z,10.76
2022-09-27T19:01:03.074Z,10.72
2022-09-27T19:03:50.329Z,10.72
2022-09-27T19:06:42.488Z,10.72
2022-09-27T19:09:31.149Z,10.70
2022-09-27T19:12:18.139Z,10.69
2022-09-27T19:15:04.979Z,10.66
2022-09-27T19:17:51.878Z,10.65
2022-09-27T19:20:39.772Z,10.64
2022-09-27T19:23:26.815Z,10.60
2022-09-27T19:26:13.748Z,10.60
2022-09-27T19:29:02.588Z,10.59
2022-09-27T19:31:49.487Z,10.51
2022-09-27T19:34:36.422Z,10.57
2022-09-27T19:37:23.363Z,10.55
2022-09-27T19:40:10.516Z,10.53
2022-09-27T19:42:57.447Z,10.50
2022-09-27T19:45:44.339Z,10.51
2022-09-27T19:48:31.330Z,10.49
2022-09-27T19:50:59.941Z,10.48
2022-09-27T19:53:31.877Z,10.48
2022-09-27T19:56:01.042Z,10.29
2022-09-27T19:58:30.067Z,10.41
2022-09-27T20:01:08.768Z,10.45
2022-09-27T20:03:38.779Z,10.44
2022-09-27T20:06:08.441Z,10.43
2022-09-27T20:08:35.809Z,10.41
2022-09-27T20:11:07.093Z,10.40
2022-09-27T20:13:34.935Z,10.39
2022-09-27T20:16:04.918Z,10.38
2022-09-27T20:18:32.183Z,10.38
2022-09-27T20:21:03.872Z,10.37
2022-09-27T20:23:32.579Z,10.36
2022-09-27T20:26:20.295Z,10.35
2022-09-27T20:28:52.532Z,10.35
2022-09-27T20:32:01.517Z,10.34
2022-09-27T20:34:49.624Z,10.34
2022-09-27T20:37:36.552Z,10.33
2022-09-27T20:40:23.626Z,10.31
2022-09-27T20:43:10.446Z,10.31
2022-09-27T20:45:57.392Z,10.28
2022-09-27T20:48:44.181Z,10.23
2022-09-27T20:51:36.361Z,10.24
2022-09-27T20:54:24.999Z,10.17
2022-09-27T20:57:12.082Z,10.20
2022-09-27T20:59:59.064Z,10.20
2022-09-27T21:02:45.999Z,10.19
2022-09-27T21:05:32.839Z,10.19
2022-09-27T21:08:19.890Z,10.19
2022-09-27T21:11:06.676Z,10.14
2022-09-27T21:13:54.025Z,10.17
2022-09-27T21:16:43.533Z,10.17
2022-09-27T21:19:30.923Z,10.16
2022-09-27T21:22:17.783Z,10.15
2022-09-27T21:25:04.817Z,10.15
2022-09-27T21:27:31.774Z,10.17
2022-09-27T21:30:00.205Z,10.16
2022-09-27T21:32:27.699Z,10.17
2022-09-27T21:34:55.715Z,10.16
2022-09-27T21:37:23.141Z,10.17
2022-09-27T21:39:50.241Z,10.15
2022-09-27T21:42:17.104Z,10.16
2022-09-27T21:44:44.231Z,10.16
2022-09-27T21:47:13.736Z,10.16
2022-09-27T21:49:40.600Z,10.14
2022-09-27T21:52:07.483Z,10.15
2022-09-27T21:54:34.449Z,10.14
2022-09-27T21:57:01.724Z,10.13
2022-09-27T21:59:28.676Z,10.12
2022-09-27T22:01:55.804Z,10.11
2022-09-27T22:04:22.665Z,10.10
2022-09-27T22:06:49.604Z,10.08
2022-09-27T22:09:17.469Z,10.07
2022-09-27T22:11:46.298Z,10.07
2022-09-27T22:14:15.381Z,10.06
2022-09-27T22:16:42.796Z,10.02
2022-09-27T22:19:11.320Z,10.08
2022-09-27T22:21:39.437Z,10.08
2022-09-27T22:24:10.928Z,10.08
2022-09-27T22:26:39.853Z,10.07
2022-09-27T22:29:08.029Z,10.08
2022-09-27T22:31:37.533Z,10.08
2022-09-27T22:34:07.460Z,10.09
2022-09-27T22:36:35.098Z,10.00
2022-09-27T22:39:02.794Z,10.09
2022-09-27T22:41:30.481Z,9.81
2022-09-27T22:43:58.021Z,10.07
2022-09-27T22:46:25.615Z,10.06
2022-09-27T22:48:52.964Z,10.02
2022-09-27T22:51:19.948Z,10.05
2022-09-27T22:53:47.194Z,10.05
2022-09-27T22:56:16.655Z,10.03
2022-09-27T22:58:44.214Z,10.05
2022-09-27T23:01:22.218Z,10.05
2022-09-27T23:03:51.341Z,10.04
2022-09-27T23:06:19.937Z,10.04
2022-09-27T23:08:47.718Z,10.05
2022-09-27T23:11:20.129Z,10.01
2022-09-27T23:13:48.419Z,10.06
2022-09-27T23:16:17.851Z,10.06
2022-09-27T23:18:44.983Z,10.06
2022-09-27T23:21:13.215Z,10.07
2022-09-27T23:23:42.518Z,10.05
2022-09-27T23:26:12.028Z,10.07
2022-09-27T23:28:39.726Z,10.07
2022-09-27T23:31:09.377Z,10.08
2022-09-27T23:33:38.588Z,9.92
2022-09-27T23:36:08.311Z,10.06
2022-09-27T23:38:36.345Z,10.05
2022-09-27T23:41:03.652Z,10.02
2022-09-27T23:43:31.165Z,10.01
2022-09-27T23:45:58.215Z,10.06
2022-09-27T23:48:26.118Z,10.06
2022-09-27T23:50:53.765Z,10.05
2022-09-27T23:53:21.554Z,10.06
2022-09-27T23:55:58.712Z,10.07
2022-09-27T23:58:25.585Z,10.07
